Friday, May 06, 2016
07:22 UTC
  |  Log In   |  Register Free
Airport Search:

Washington Dulles International Airport
(KIAD)

FAA data valid effective Mar 31 2016 - May 26 2016 (unless otherwise noted).

 
 
 
 
 
 
 
 
 
 
 
 
 
 
Summary: Washington Dulles International (IAD)

Weather Summary


METAR for KIAD is not available. Closest METAR is for KJYO
KIAD  (most recent observation was updatred at 60:65 UTC)
060652Z 35008KT 10SM -DZ FEW008 OVC031 11/09 A2967 RMK AO2 DZB40 SLP047 P0000 T01110094

KJYO  (9.3 nm SE)   (most recent observation was updated at 60:65 UTC)
060655Z AUTO 36003KT 10SM OVC022 11/11 A2968 RMK AO2

KHEF  (13.7 nm NE)   (most recent observation was updated at 60:71 UTC)
060715Z 35006KT 10SM SCT019 OVC039 11/11 A2967 RMK AO1

TAF for KIAD is not available.
KIAD
060520Z 0606/0712 36005KT 6SM -SHRA BR SCT008 OVC015 FM061200 36008KT 3SM RA BR OVC010 FM062100 31008KT 3SM SHRA BR OVC012 FM070000 30007KT 5SM -SHRA BR OVC008 FM070600 30004KT 6SM BR OVC008

KDAA  (18.8 nm NW)   (most recent observation was updatred at 60:10 UTC)
060100Z 0601/0707 VRB04KT 9999 BKN025 620703 QNH2960INS BECMG 0603/0604 VRB04KT 8000 -RA BR BKN009 OVC015 620703 QNH2964INS BECMG 0608/0609 VRB04KT 6000 -RA BR OVC006 620703 QNH2967INS BECMG 0614/0615 VRB05KT 4800 -RA OVC005 620703 QNH2968INS TX14/0619Z TN10/0609Z LAST NO AMDS AFT 0601 NEXT 0609


KDCA  (20.3 nm NW)   (most recent observation was updatred at 60:52 UTC)
060520Z 0606/0706 35004KT 6SM -SHRA BR OVC015 FM060900 35004KT 6SM -SHRA BR OVC008 FM061200 01008KT 3SM RA BR OVC008 FM062100 01006KT 5SM SHRA BR OVC012 FM070000 28006KT 6SM BR OVC008
GlobalAir.com is loading additional information.
 Current Weather at IAD
52.0 F° (11.1 C°)
Overcast
North winds at 9.2 mph
Pressure:
29.68 in
Humidity:
89%
Wind:
North at 9.2 MPH (8 KT)
Dew Point:
48.9 F° (9.4 C°)
Visibility:
10.00 mi
IAD NOAA Radar

Communications Summary


CTAFN/A
UNICOM122.95
ATIS134.85 (703-471-7127)
WX ASOS
DULLES GROUND121.9 (EAST)
132.45 (WEST) [24 Hours]
DULLES TOWER120.1 (RY 01R/19L)
120.25 (RY 01C/19C)
128.425 (RY 01L/19R)
128.425 (RYS 01L/19R 12/30)
134.425 (RY 01L/19R & RY 12/30) [24 Hours]
POTOMAC APPROACH120.45 (241-330)
124.65 (091-240)
126.1 (331-090)
POTOMAC DEPARTURE125.05 (300-120)
126.65 (121-299)
CLEARANCE DELIVERY135.7
CLASS B120.45 (241-330)
124.65 (091-240)
125.05 (300-120)
126.1 (331-090)
126.65 (121-299)
CLASS B IC120.45 (241-330)
125.05 (300-120)
EMERGENCY121.5
IC120.1 (RY 01R/19L)
120.25 (RY 01C/19C)
121.9 (EAST)
128.425 (RY 01L/19R)
128.425 (RYS 01L/19R 12/30)
132.45 (WEST)
134.425 (RY 01L/19R & RY 12/30)

Closest Alternate Airports with Instrument Procedures

43VA - Reston Hospital Center - 4.4 nm NE from IAD

KJYO - Leesburg Executive - 10.7 nm NW from IAD

KHEF - Manassas Regional/Harry P. Davis Field - 13.7 nm SW from IAD

HEF - Manassas Regional/Harry P. Davis Field - 13.7 nm SW from IAD

HEF - Manassas Regional/Harry P. Davis Field - 13.7 nm SW from IAD

HEF - Manassas Regional/Harry P. Davis Field - 13.7 nm SW from IAD

KHEF - Manassas Regional/Harry P. Davis Field - 15.8 nm SW from IAD

60MD - Walter Reed National Medical Center At Bet - 17.1 nm NE from IAD

VG93 - Fort Belvoir Community Hospital - 20.4 nm SE from IAD

KGAI - Montgomery County Airpark - 22 nm NE from IAD

Find All Airport Services Find A Hotel Find A Rental Car Find A Golf Course Find A Restaurant $100 Hamburger



FBO's on the Field
FBO Company Facility Photos Services Transportation Aviation Fuel Prices: Prices include tax
Catering Weather Repair Courtesy Rental Type 100LL JetA JetA+ MOGAS 8087
 
Landmark Aviation - IAD

Currently rated 5 by 1 person
FS:Shell
Last Updated: May-05
Login to update fuel prices
SS:
Contact Landmark Aviation - IADMore FBO Information
 
Signature Flight Support

Currently rated 5 by 1 person
FS:Independent
Last Updated: May-05
Login to update fuel prices
SS:
Contact Signature Flight SupportMore FBO Information
 
Add another FBO Facility Photos Catering Weather Repair Courtesy Rental Type 100LL JetA JetA+ MOGAS 8087
Services Transportation Aviation Fuel Prices: Prices include tax


model-print
model-print
model-print
model-print